createdAt,value
2023-03-16T00:02:48.683Z,95667.47
2023-03-16T00:06:31.366Z,95670.22
2023-03-16T00:10:14.588Z,95672.50
2023-03-16T00:13:58.607Z,95667.16
2023-03-16T00:17:42.648Z,95673.31
2023-03-16T00:21:25.681Z,95653.81
2023-03-16T00:25:09.870Z,95664.19
2023-03-16T00:28:54.390Z,95668.56
2023-03-16T00:32:38.606Z,95670.50
2023-03-16T00:36:22.799Z,95661.75
2023-03-16T00:40:07.839Z,95652.47
2023-03-16T00:43:51.726Z,95647.56
2023-03-16T00:47:38.399Z,95660.84
2023-03-16T00:51:22.916Z,95665.06
2023-03-16T00:55:06.220Z,95661.81
2023-03-16T00:58:48.928Z,95665.53
2023-03-16T01:02:31.577Z,95656.91
2023-03-16T01:06:17.026Z,95650.09
2023-03-16T01:10:01.162Z,95653.94
2023-03-16T01:13:43.948Z,95642.22
2023-03-16T01:17:26.847Z,95652.06
2023-03-16T01:21:10.376Z,95650.06
2023-03-16T01:24:53.114Z,95657.28
2023-03-16T01:28:37.260Z,95650.75
2023-03-16T01:32:19.955Z,95664.16
2023-03-16T01:36:06.639Z,95657.34
2023-03-16T01:39:49.458Z,95654.91
2023-03-16T01:43:34.346Z,95640.56
2023-03-16T01:47:18.422Z,95644.28
2023-03-16T01:51:01.185Z,95631.44
2023-03-16T01:54:47.395Z,95633.38
2023-03-16T01:58:30.271Z,95628.47
2023-03-16T02:02:14.945Z,95635.44
2023-03-16T02:06:00.720Z,95632.03
2023-03-16T02:09:46.248Z,95635.28
2023-03-16T02:13:29.635Z,95629.56
2023-03-16T02:17:12.952Z,95635.56
2023-03-16T02:21:02.065Z,95632.31
2023-03-16T02:24:44.812Z,95644.22
2023-03-16T02:28:32.271Z,95630.72
2023-03-16T02:32:16.565Z,95634.56
2023-03-16T02:35:59.277Z,95643.44
2023-03-16T02:39:44.000Z,95632.13
2023-03-16T02:43:29.195Z,95627.22
2023-03-16T02:47:16.591Z,95632.41
2023-03-16T02:50:59.521Z,95626.25
2023-03-16T02:54:42.173Z,95620.25
2023-03-16T02:58:24.827Z,95635.66
2023-03-16T03:02:09.215Z,95627.22
2023-03-16T03:05:54.900Z,95634.31
2023-03-16T03:09:37.549Z,95621.50
2023-03-16T03:13:20.260Z,95618.63
2023-03-16T03:17:04.215Z,95625.56
2023-03-16T03:20:46.932Z,95617.13
2023-03-16T03:24:31.722Z,95621.22
2023-03-16T03:28:14.733Z,95622.03
2023-03-16T03:31:57.478Z,95612.47
2023-03-16T03:35:42.048Z,95622.31
2023-03-16T03:39:25.152Z,95623.13
2023-03-16T03:43:09.330Z,95626.16
2023-03-16T03:46:52.632Z,95621.78
2023-03-16T03:50:35.368Z,95610.31
2023-03-16T03:54:18.248Z,95612.22
2023-03-16T03:58:01.011Z,95613.19
2023-03-16T04:01:45.122Z,95614.16
2023-03-16T04:05:28.285Z,95619.34
2023-03-16T04:09:11.458Z,95602.41
2023-03-16T04:12:54.234Z,95607.59
2023-03-16T04:16:36.916Z,95609.50
2023-03-16T04:20:22.044Z,95602.16
2023-03-16T04:24:05.243Z,95614.16
2023-03-16T04:27:47.969Z,95612.66
2023-03-16T04:31:30.683Z,95619.09
2023-03-16T04:35:13.399Z,95626.19
2023-03-16T04:38:57.427Z,95625.66
2023-03-16T04:42:40.104Z,95621.28
2023-03-16T04:46:22.858Z,95615.44
2023-03-16T04:50:06.348Z,95612.31
2023-03-16T04:53:49.160Z,95604.66
2023-03-16T04:57:35.023Z,95613.41
2023-03-16T05:01:18.305Z,95608.22
2023-03-16T05:05:01.007Z,95591.03
2023-03-16T05:08:43.692Z,95601.41
2023-03-16T05:12:26.373Z,95590.06
2023-03-16T05:16:10.466Z,95583.41
2023-03-16T05:19:53.209Z,95591.31
2023-03-16T05:23:36.750Z,95586.41
2023-03-16T05:27:20.480Z,95582.06
2023-03-16T05:31:03.755Z,95586.69
2023-03-16T05:34:47.841Z,95586.41
2023-03-16T05:38:31.880Z,95588.34
2023-03-16T05:42:14.654Z,95590.25
2023-03-16T05:45:58.102Z,95588.91
2023-03-16T05:49:40.787Z,95587.25
2023-03-16T05:53:29.160Z,95580.44
2023-03-16T05:57:12.101Z,95581.41
2023-03-16T06:00:55.688Z,95582.66
2023-03-16T06:04:38.338Z,95586.19
2023-03-16T06:08:21.051Z,95588.66
2023-03-16T06:12:06.603Z,95578.69
2023-03-16T06:15:50.305Z,95585.63
2023-03-16T06:19:33.153Z,95587.13
2023-03-16T06:23:15.829Z,95593.53
2023-03-16T06:26:58.506Z,95589.97
2023-03-16T06:30:42.744Z,95594.59
2023-03-16T06:34:25.473Z,95597.84
2023-03-16T06:38:08.527Z,95593.22
2023-03-16T06:41:52.686Z,95596.19
2023-03-16T06:45:35.381Z,95602.47
2023-03-16T06:49:19.474Z,95596.50
2023-03-16T06:53:02.191Z,95597.34
2023-03-16T06:56:46.409Z,95597.50
2023-03-16T07:00:30.859Z,95593.00
2023-03-16T07:04:13.680Z,95598.19
2023-03-16T07:07:58.075Z,95591.66
2023-03-16T07:11:41.000Z,95593.16
2023-03-16T07:15:26.711Z,95579.81
2023-03-16T07:19:13.807Z,95582.75
2023-03-16T07:22:58.083Z,95578.63
2023-03-16T07:26:41.317Z,95582.38
2023-03-16T07:30:25.392Z,95584.47
2023-03-16T07:34:08.132Z,95588.50
2023-03-16T07:37:51.393Z,95582.31
2023-03-16T07:41:35.479Z,95599.13
2023-03-16T07:45:18.229Z,95598.25
2023-03-16T07:49:01.317Z,95602.47
2023-03-16T07:52:44.060Z,95597.28
2023-03-16T07:56:29.717Z,95604.84
2023-03-16T08:00:16.758Z,95613.16
2023-03-16T08:03:59.546Z,95610.09
2023-03-16T08:07:42.294Z,95615.22
2023-03-16T08:11:25.008Z,95617.59
2023-03-16T08:15:08.995Z,95625.84
2023-03-16T08:18:53.118Z,95629.19
2023-03-16T08:22:37.223Z,95641.44
2023-03-16T08:26:20.842Z,95641.66
2023-03-16T08:30:06.129Z,95638.34
2023-03-16T08:33:49.670Z,95636.78
2023-03-16T08:37:33.676Z,95640.84
2023-03-16T08:41:17.507Z,95641.09
2023-03-16T08:45:00.984Z,95632.63
2023-03-16T08:48:43.787Z,95626.53
2023-03-16T08:52:26.558Z,95625.78
2023-03-16T08:56:12.369Z,95622.06
2023-03-16T08:59:55.036Z,95620.44
2023-03-16T09:03:37.690Z,95617.06
2023-03-16T09:07:20.649Z,95612.91
2023-03-16T09:11:07.503Z,95618.31
2023-03-16T09:14:51.594Z,95607.59
2023-03-16T09:18:35.424Z,95611.88
2023-03-16T09:22:18.473Z,95620.59
2023-03-16T09:26:02.784Z,95607.44
2023-03-16T09:29:45.597Z,95620.78
2023-03-16T09:33:31.902Z,95620.47
2023-03-16T09:37:15.487Z,95618.19
2023-03-16T09:41:00.636Z,95630.56
2023-03-16T09:44:48.840Z,95632.91
2023-03-16T09:48:35.574Z,95630.03
2023-03-16T09:52:26.534Z,95620.34
2023-03-16T09:57:04.244Z,95624.25
2023-03-16T10:01:41.864Z,95606.25
2023-03-16T10:05:26.195Z,95607.06
2023-03-16T10:09:22.434Z,95615.22
2023-03-16T10:17:10.824Z,95607.81
2023-03-16T10:20:55.981Z,95605.06
2023-03-16T10:24:44.354Z,95598.75
2023-03-16T10:28:28.921Z,95598.09
2023-03-16T10:32:16.548Z,95587.56
2023-03-16T10:36:03.814Z,95579.75
2023-03-16T10:39:46.849Z,95584.00
2023-03-16T10:43:32.139Z,95589.69
2023-03-16T10:47:20.430Z,95582.69
2023-03-16T10:51:08.240Z,95572.44
2023-03-16T10:54:52.731Z,95575.03
2023-03-16T10:58:36.548Z,95569.81
2023-03-16T11:02:22.678Z,95569.16
2023-03-16T11:06:08.960Z,95549.13
2023-03-16T11:09:52.627Z,95555.16
2023-03-16T11:13:38.754Z,95553.53
2023-03-16T11:17:27.202Z,95550.91
2023-03-16T11:21:16.383Z,95541.13
2023-03-16T11:25:06.470Z,95547.28
2023-03-16T11:28:53.254Z,95538.47
2023-03-16T11:32:41.025Z,95531.75
2023-03-16T11:36:39.301Z,95525.06
2023-03-16T11:40:38.463Z,95519.34
2023-03-16T11:44:28.072Z,95520.09
2023-03-16T11:48:30.404Z,95519.25
2023-03-16T11:52:18.535Z,95508.59
2023-03-16T11:56:11.710Z,95501.16
2023-03-16T12:00:05.873Z,95495.72
2023-03-16T12:04:16.257Z,95497.25
2023-03-16T12:08:11.010Z,95481.75
2023-03-16T12:11:56.309Z,95483.06
2023-03-16T12:15:42.413Z,95474.38
2023-03-16T12:19:30.570Z,95465.91
2023-03-16T12:23:15.895Z,95455.34
2023-03-16T12:26:59.669Z,95454.72
2023-03-16T12:30:49.002Z,95453.25
2023-03-16T12:34:35.750Z,95452.81
2023-03-16T12:38:27.439Z,95453.84
2023-03-16T12:42:26.567Z,95451.03
2023-03-16T12:46:11.917Z,95449.06
2023-03-16T12:49:56.500Z,95442.00
2023-03-16T12:53:48.557Z,95448.06
2023-03-16T12:57:32.028Z,95425.78
2023-03-16T13:01:16.931Z,95430.31
2023-03-16T13:05:01.713Z,95424.75
2023-03-16T13:08:51.421Z,95414.69
2023-03-16T13:12:37.077Z,95415.13
2023-03-16T13:16:28.314Z,95424.47
2023-03-16T13:20:31.518Z,95420.09
2023-03-16T13:24:28.482Z,95412.44
2023-03-16T13:28:14.630Z,95414.88
2023-03-16T13:31:59.356Z,95401.53
2023-03-16T13:35:42.185Z,95408.41
2023-03-16T13:39:28.349Z,95408.97
2023-03-16T13:43:15.905Z,95400.22
2023-03-16T13:46:59.012Z,95397.31
2023-03-16T13:50:43.186Z,95395.22
2023-03-16T13:54:29.764Z,95384.19
2023-03-16T13:58:21.614Z,95386.66
2023-03-16T14:02:04.350Z,95376.94
2023-03-16T14:05:47.577Z,95371.56
2023-03-16T14:09:34.535Z,95374.03
2023-03-16T14:13:26.569Z,95367.44
2023-03-16T14:17:12.844Z,95373.53
2023-03-16T14:20:57.044Z,95376.41
2023-03-16T14:24:41.651Z,95378.00
2023-03-16T14:28:32.082Z,95365.97
2023-03-16T14:32:23.438Z,95374.63
2023-03-16T14:36:13.038Z,95372.63
2023-03-16T14:40:06.014Z,95373.84
2023-03-16T14:43:51.587Z,95356.72
2023-03-16T14:47:41.782Z,95357.53
2023-03-16T14:51:25.418Z,95359.28
2023-03-16T14:55:14.646Z,95353.84
2023-03-16T14:58:57.475Z,95356.63
2023-03-16T15:02:42.167Z,95348.03
2023-03-16T15:06:26.478Z,95352.75
2023-03-16T15:10:22.016Z,95354.28
2023-03-16T15:14:35.597Z,95350.91
2023-03-16T15:18:18.502Z,95333.78
2023-03-16T15:22:01.902Z,95328.03
2023-03-16T15:25:46.607Z,95353.69
2023-03-16T15:29:29.469Z,95335.41
2023-03-16T15:33:12.779Z,95348.66
2023-03-16T15:36:56.269Z,95327.47
2023-03-16T15:40:40.617Z,95330.81
2023-03-16T15:44:24.688Z,95331.38
2023-03-16T15:48:10.758Z,95327.13
2023-03-16T15:51:53.775Z,95311.22
2023-03-16T15:55:38.334Z,95307.78
2023-03-16T15:59:22.160Z,95308.47
2023-03-16T16:03:08.022Z,95293.03
2023-03-16T16:06:53.613Z,95303.63
2023-03-16T16:10:36.519Z,95294.81
2023-03-16T16:14:24.675Z,95301.75
2023-03-16T16:18:24.545Z,95295.16
2023-03-16T16:22:09.833Z,95290.22
2023-03-16T16:25:53.148Z,95295.38
2023-03-16T16:29:35.878Z,95310.59
2023-03-16T16:33:24.935Z,95309.56
2023-03-16T16:37:09.908Z,95315.50
2023-03-16T16:40:53.509Z,95320.56
2023-03-16T16:44:38.127Z,95329.22
2023-03-16T16:48:32.849Z,95332.66
2023-03-16T16:52:16.830Z,95325.50
2023-03-16T16:55:59.815Z,95334.28
2023-03-16T16:59:44.834Z,95327.25
2023-03-16T17:03:30.496Z,95335.25
2023-03-16T17:07:13.945Z,95325.78
2023-03-16T17:10:57.143Z,95326.03
2023-03-16T17:14:41.371Z,95341.44
2023-03-16T17:18:24.388Z,95337.81
2023-03-16T17:22:26.103Z,95338.84
2023-03-16T17:26:15.929Z,95342.44
2023-03-16T17:29:59.118Z,95342.81
2023-03-16T17:33:42.228Z,95348.66
2023-03-16T17:37:26.348Z,95340.75
2023-03-16T17:41:21.572Z,95339.06
2023-03-16T17:45:04.909Z,95339.03
2023-03-16T17:48:47.817Z,95330.94
2023-03-16T17:52:32.488Z,95335.34
2023-03-16T17:56:19.700Z,95340.16
2023-03-16T18:00:03.176Z,95337.72
2023-03-16T18:03:46.168Z,95342.47
2023-03-16T18:07:29.053Z,95333.16
2023-03-16T18:11:17.679Z,95333.16
2023-03-16T18:15:01.508Z,95335.59
2023-03-16T18:18:44.618Z,95341.81
2023-03-16T18:22:27.973Z,95329.97
2023-03-16T18:26:11.636Z,95348.31
2023-03-16T18:29:55.932Z,95347.69
2023-03-16T18:33:40.992Z,95342.81
2023-03-16T18:37:25.158Z,95342.72
2023-03-16T18:41:16.890Z,95332.53
2023-03-16T18:45:01.322Z,95332.09
2023-03-16T18:48:44.039Z,95332.69
2023-03-16T18:52:29.158Z,95330.00
2023-03-16T18:56:19.671Z,95321.53
2023-03-16T19:00:03.836Z,95317.00
2023-03-16T19:03:46.635Z,95326.22
2023-03-16T19:07:33.820Z,95326.59
2023-03-16T19:11:18.059Z,95323.38
2023-03-16T19:15:00.742Z,95329.22
2023-03-16T19:18:43.874Z,95324.13
2023-03-16T19:22:26.530Z,95319.00
2023-03-16T19:26:09.539Z,95324.00
2023-03-16T19:29:52.859Z,95330.78
2023-03-16T19:33:35.533Z,95321.50
2023-03-16T19:37:19.976Z,95331.59
2023-03-16T19:41:02.749Z,95315.44
2023-03-16T19:44:48.894Z,95321.50
2023-03-16T19:48:33.743Z,95320.34
2023-03-16T19:52:16.489Z,95327.28
2023-03-16T19:56:01.448Z,95327.47
2023-03-16T19:59:46.597Z,95320.00
2023-03-16T20:03:29.582Z,95321.63
2023-03-16T20:07:16.388Z,95315.22
2023-03-16T20:11:04.239Z,95322.06
2023-03-16T20:14:47.012Z,95317.56
2023-03-16T20:18:30.020Z,95310.34
2023-03-16T20:22:18.306Z,95310.34
2023-03-16T20:26:03.161Z,95298.13
2023-03-16T20:29:46.889Z,95302.00
2023-03-16T20:33:29.805Z,95295.09
2023-03-16T20:37:23.770Z,95292.84
2023-03-16T20:41:13.274Z,95293.84
2023-03-16T20:44:56.313Z,95288.59
2023-03-16T20:48:38.991Z,95291.47
2023-03-16T20:52:23.509Z,95286.44
2023-03-16T20:56:10.850Z,95283.00
2023-03-16T20:59:57.070Z,95291.47
2023-03-16T21:03:39.758Z,95283.75
2023-03-16T21:07:23.044Z,95277.63
2023-03-16T21:11:10.218Z,95274.63
2023-03-16T21:14:52.910Z,95280.22
2023-03-16T21:18:35.974Z,95281.50
2023-03-16T21:22:29.557Z,95271.22
2023-03-16T21:26:16.416Z,95281.41
2023-03-16T21:30:18.473Z,95280.84
2023-03-16T21:34:01.881Z,95284.88
2023-03-16T21:37:45.102Z,95284.22
2023-03-16T21:41:29.092Z,95276.94
2023-03-16T21:45:12.626Z,95270.09
2023-03-16T21:48:56.316Z,95262.34
2023-03-16T21:52:40.131Z,95257.66
2023-03-16T21:56:26.026Z,95252.16
2023-03-16T22:00:17.066Z,95244.41
2023-03-16T22:04:03.770Z,95256.69
2023-03-16T22:07:46.596Z,95262.75
2023-03-16T22:11:30.811Z,95260.50
2023-03-16T22:15:15.144Z,95259.69
2023-03-16T22:18:58.608Z,95254.75
2023-03-16T22:22:41.441Z,95254.41
2023-03-16T22:26:24.861Z,95253.41
2023-03-16T22:30:09.012Z,95253.41
2023-03-16T22:33:53.157Z,95251.81
2023-03-16T22:37:36.013Z,95260.97
2023-03-16T22:41:18.733Z,95263.91
2023-03-16T22:45:03.855Z,95252.22
2023-03-16T22:48:46.574Z,95247.53
2023-03-16T22:52:33.308Z,95250.19
2023-03-16T22:56:16.169Z,95251.16
2023-03-16T22:59:59.778Z,95251.69
2023-03-16T23:03:42.584Z,95251.06
2023-03-16T23:07:25.264Z,95255.00
2023-03-16T23:11:14.296Z,95244.22
2023-03-16T23:14:57.336Z,95247.19
2023-03-16T23:18:39.988Z,95243.13
2023-03-16T23:22:25.627Z,95238.25
2023-03-16T23:26:16.235Z,95233.56
2023-03-16T23:29:58.985Z,95234.88
2023-03-16T23:33:42.180Z,95236.22
2023-03-16T23:37:24.954Z,95227.28
2023-03-16T23:41:07.907Z,95226.81
2023-03-16T23:44:51.916Z,95219.19
2023-03-16T23:48:34.817Z,95218.06
2023-03-16T23:52:17.624Z,95219.38
2023-03-16T23:56:00.873Z,95214.88
2023-03-16T23:59:43.512Z,95213.09
